sensor_id;sensor_type;location;lat;lon;timestamp;P1;durP1;ratioP1;P2;durP2;ratioP2
76512;SDS011;65345;0.000;0.000;2023-11-19T00:00:20;9.48;;;4.78;;
76512;SDS011;65345;0.000;0.000;2023-11-19T00:01:00;8.85;;;4.60;;
76512;SDS011;65345;0.000;0.000;2023-11-19T00:01:34;9.07;;;4.30;;
76512;SDS011;65345;0.000;0.000;2023-11-19T00:02:08;9.52;;;4.53;;
76512;SDS011;65345;0.000;0.000;2023-11-19T00:02:43;8.43;;;4.60;;
76512;SDS011;65345;0.000;0.000;2023-11-19T00:03:18;10.32;;;5.05;;
76512;SDS011;65345;0.000;0.000;2023-11-19T00:03:54;10.45;;;4.85;;
76512;SDS011;65345;0.000;0.000;2023-11-19T00:04:31;9.52;;;5.07;;
76512;SDS011;65345;0.000;0.000;2023-11-19T00:05:04;8.85;;;4.78;;
76512;SDS011;65345;0.000;0.000;2023-11-19T00:05:39;8.85;;;4.85;;
76512;SDS011;65345;0.000;0.000;2023-11-19T00:06:14;8.20;;;4.20;;
76512;SDS011;65345;0.000;0.000;2023-11-19T00:06:45;8.82;;;4.47;;
76512;SDS011;65345;0.000;0.000;2023-11-19T00:07:16;8.77;;;4.63;;
76512;SDS011;65345;0.000;0.000;2023-11-19T00:07:46;8.53;;;4.40;;
76512;SDS011;65345;0.000;0.000;2023-11-19T00:08:19;9.67;;;4.87;;
76512;SDS011;65345;0.000;0.000;2023-11-19T00:08:54;7.85;;;4.32;;
76512;SDS011;65345;0.000;0.000;2023-11-19T00:09:27;9.30;;;4.75;;
76512;SDS011;65345;0.000;0.000;2023-11-19T00:09:59;7.65;;;4.20;;
76512;SDS011;65345;0.000;0.000;2023-11-19T00:10:29;8.07;;;4.38;;
76512;SDS011;65345;0.000;0.000;2023-11-19T00:11:01;8.70;;;4.40;;
76512;SDS011;65345;0.000;0.000;2023-11-19T00:11:36;9.43;;;4.85;;
76512;SDS011;65345;0.000;0.000;2023-11-19T00:12:09;9.13;;;4.50;;
76512;SDS011;65345;0.000;0.000;2023-11-19T00:12:42;7.45;;;4.38;;
76512;SDS011;65345;0.000;0.000;2023-11-19T00:13:18;10.13;;;4.68;;
76512;SDS011;65345;0.000;0.000;2023-11-19T00:13:50;8.13;;;4.40;;
76512;SDS011;65345;0.000;0.000;2023-11-19T00:14:21;9.85;;;4.40;;
76512;SDS011;65345;0.000;0.000;2023-11-19T00:14:53;9.90;;;4.80;;
76512;SDS011;65345;0.000;0.000;2023-11-19T00:15:28;9.00;;;4.50;;
76512;SDS011;65345;0.000;0.000;2023-11-19T00:16:03;7.78;;;4.50;;
76512;SDS011;65345;0.000;0.000;2023-11-19T00:16:38;8.98;;;4.40;;
76512;SDS011;65345;0.000;0.000;2023-11-19T00:17:11;8.45;;;4.47;;
76512;SDS011;65345;0.000;0.000;2023-11-19T00:17:42;8.18;;;4.43;;
76512;SDS011;65345;0.000;0.000;2023-11-19T00:18:14;8.70;;;4.60;;
76512;SDS011;65345;0.000;0.000;2023-11-19T00:18:47;9.18;;;4.45;;
76512;SDS011;65345;0.000;0.000;2023-11-19T00:19:19;9.40;;;4.30;;
76512;SDS011;65345;0.000;0.000;2023-11-19T00:19:53;9.30;;;4.88;;
76512;SDS011;65345;0.000;0.000;2023-11-19T00:20:29;8.73;;;4.22;;
76512;SDS011;65345;0.000;0.000;2023-11-19T00:21:01;10.43;;;4.73;;
76512;SDS011;65345;0.000;0.000;2023-11-19T00:21:34;7.90;;;4.18;;
76512;SDS011;65345;0.000;0.000;2023-11-19T00:22:14;8.27;;;4.47;;
76512;SDS011;65345;0.000;0.000;2023-11-19T00:22:48;7.80;;;4.32;;
76512;SDS011;65345;0.000;0.000;2023-11-19T00:23:22;8.63;;;4.40;;
76512;SDS011;65345;0.000;0.000;2023-11-19T00:23:58;9.50;;;4.53;;
76512;SDS011;65345;0.000;0.000;2023-11-19T00:24:31;8.00;;;4.50;;
76512;SDS011;65345;0.000;0.000;2023-11-19T00:25:08;8.73;;;4.47;;
76512;SDS011;65345;0.000;0.000;2023-11-19T00:25:43;7.50;;;4.38;;
76512;SDS011;65345;0.000;0.000;2023-11-19T00:26:16;8.18;;;4.50;;
76512;SDS011;65345;0.000;0.000;2023-11-19T00:26:48;8.40;;;4.45;;
76512;SDS011;65345;0.000;0.000;2023-11-19T00:27:25;7.60;;;4.00;;
76512;SDS011;65345;0.000;0.000;2023-11-19T00:28:01;7.28;;;4.13;;
76512;SDS011;65345;0.000;0.000;2023-11-19T00:28:35;7.40;;;4.03;;
76512;SDS011;65345;0.000;0.000;2023-11-19T00:29:13;8.45;;;4.60;;
76512;SDS011;65345;0.000;0.000;2023-11-19T00:29:45;7.72;;;4.20;;
76512;SDS011;65345;0.000;0.000;2023-11-19T00:30:20;8.48;;;4.25;;
76512;SDS011;65345;0.000;0.000;2023-11-19T00:30:55;8.70;;;4.10;;
76512;SDS011;65345;0.000;0.000;2023-11-19T00:31:29;9.52;;;4.30;;
76512;SDS011;65345;0.000;0.000;2023-11-19T00:32:00;8.63;;;4.63;;
76512;SDS011;65345;0.000;0.000;2023-11-19T00:32:34;9.88;;;4.43;;
76512;SDS011;65345;0.000;0.000;2023-11-19T00:33:06;7.93;;;4.30;;
76512;SDS011;65345;0.000;0.000;2023-11-19T00:33:36;7.97;;;4.20;;
76512;SDS011;65345;0.000;0.000;2023-11-19T00:34:13;8.90;;;4.40;;
76512;SDS011;65345;0.000;0.000;2023-11-19T00:34:47;8.83;;;4.40;;
76512;SDS011;65345;0.000;0.000;2023-11-19T00:35:19;8.73;;;4.32;;
76512;SDS011;65345;0.000;0.000;2023-11-19T00:35:50;7.22;;;4.05;;
76512;SDS011;65345;0.000;0.000;2023-11-19T00:36:20;8.53;;;4.20;;
76512;SDS011;65345;0.000;0.000;2023-11-19T00:36:54;9.77;;;4.40;;
76512;SDS011;65345;0.000;0.000;2023-11-19T00:37:30;8.52;;;4.13;;
76512;SDS011;65345;0.000;0.000;2023-11-19T00:38:03;10.40;;;4.50;;
76512;SDS011;65345;0.000;0.000;2023-11-19T00:38:38;7.45;;;4.20;;
76512;SDS011;65345;0.000;0.000;2023-11-19T00:39:09;9.95;;;4.40;;
76512;SDS011;65345;0.000;0.000;2023-11-19T00:39:48;8.00;;;4.40;;
76512;SDS011;65345;0.000;0.000;2023-11-19T00:40:24;8.93;;;4.30;;
76512;SDS011;65345;0.000;0.000;2023-11-19T00:40:56;8.40;;;4.40;;
76512;SDS011;65345;0.000;0.000;2023-11-19T00:41:26;8.07;;;4.10;;
76512;SDS011;65345;0.000;0.000;2023-11-19T00:42:08;9.23;;;4.43;;
76512;SDS011;65345;0.000;0.000;2023-11-19T00:42:41;8.05;;;4.05;;
76512;SDS011;65345;0.000;0.000;2023-11-19T00:43:12;8.70;;;4.30;;
76512;SDS011;65345;0.000;0.000;2023-11-19T00:43:44;8.55;;;4.30;;
76512;SDS011;65345;0.000;0.000;2023-11-19T00:44:16;7.77;;;4.07;;
76512;SDS011;65345;0.000;0.000;2023-11-19T00:44:49;7.68;;;4.28;;
76512;SDS011;65345;0.000;0.000;2023-11-19T00:45:23;9.73;;;4.45;;
76512;SDS011;65345;0.000;0.000;2023-11-19T00:45:55;8.48;;;4.68;;
76512;SDS011;65345;0.000;0.000;2023-11-19T00:46:29;7.63;;;4.15;;
76512;SDS011;65345;0.000;0.000;2023-11-19T00:47:02;8.55;;;4.30;;
76512;SDS011;65345;0.000;0.000;2023-11-19T00:47:33;8.85;;;4.38;;
76512;SDS011;65345;0.000;0.000;2023-11-19T00:48:03;8.77;;;4.13;;
76512;SDS011;65345;0.000;0.000;2023-11-19T00:48:51;8.60;;;3.88;;
76512;SDS011;65345;0.000;0.000;2023-11-19T00:49:21;9.35;;;4.50;;
76512;SDS011;65345;0.000;0.000;2023-11-19T00:49:53;8.30;;;4.40;;
76512;SDS011;65345;0.000;0.000;2023-11-19T00:50:28;7.80;;;4.07;;
76512;SDS011;65345;0.000;0.000;2023-11-19T00:51:01;9.60;;;4.22;;
76512;SDS011;65345;0.000;0.000;2023-11-19T00:51:32;8.95;;;4.18;;
76512;SDS011;65345;0.000;0.000;2023-11-19T00:52:09;7.75;;;4.03;;
76512;SDS011;65345;0.000;0.000;2023-11-19T00:52:44;8.50;;;4.25;;
76512;SDS011;65345;0.000;0.000;2023-11-19T00:53:15;9.38;;;4.47;;
76512;SDS011;65345;0.000;0.000;2023-11-19T00:53:47;8.52;;;4.38;;
76512;SDS011;65345;0.000;0.000;2023-11-19T00:54:17;7.43;;;4.28;;
76512;SDS011;65345;0.000;0.000;2023-11-19T00:54:50;8.40;;;4.35;;
76512;SDS011;65345;0.000;0.000;2023-11-19T00:55:25;7.78;;;4.22;;
76512;SDS011;65345;0.000;0.000;2023-11-19T00:55:59;8.10;;;4.30;;
76512;SDS011;65345;0.000;0.000;2023-11-19T00:56:34;7.00;;;3.75;;
76512;SDS011;65345;0.000;0.000;2023-11-19T00:57:07;8.02;;;4.25;;
76512;SDS011;65345;0.000;0.000;2023-11-19T00:57:38;8.13;;;4.35;;
76512;SDS011;65345;0.000;0.000;2023-11-19T00:58:13;7.53;;;4.05;;
76512;SDS011;65345;0.000;0.000;2023-11-19T00:58:44;8.55;;;4.22;;
76512;SDS011;65345;0.000;0.000;2023-11-19T00:59:16;7.72;;;4.03;;
76512;SDS011;65345;0.000;0.000;2023-11-19T00:59:47;7.17;;;4.07;;
76512;SDS011;65345;0.000;0.000;2023-11-19T01:00:20;8.27;;;4.30;;
76512;SDS011;65345;0.000;0.000;2023-11-19T01:00:56;7.90;;;3.92;;
76512;SDS011;65345;0.000;0.000;2023-11-19T01:01:28;8.23;;;4.25;;
76512;SDS011;65345;0.000;0.000;2023-11-19T01:02:00;8.57;;;4.30;;
76512;SDS011;65345;0.000;0.000;2023-11-19T01:02:49;8.73;;;4.25;;
76512;SDS011;65345;0.000;0.000;2023-11-19T01:03:21;7.60;;;4.00;;
76512;SDS011;65345;0.000;0.000;2023-11-19T01:03:53;7.72;;;4.10;;
76512;SDS011;65345;0.000;0.000;2023-11-19T01:04:29;7.38;;;3.78;;
76512;SDS011;65345;0.000;0.000;2023-11-19T01:05:01;8.73;;;4.05;;
76512;SDS011;65345;0.000;0.000;2023-11-19T01:05:34;8.07;;;4.28;;
76512;SDS011;65345;0.000;0.000;2023-11-19T01:06:13;6.78;;;3.80;;
76512;SDS011;65345;0.000;0.000;2023-11-19T01:06:48;7.47;;;4.10;;
76512;SDS011;65345;0.000;0.000;2023-11-19T01:07:18;7.20;;;4.00;;
76512;SDS011;65345;0.000;0.000;2023-11-19T01:08:11;7.82;;;4.15;;
76512;SDS011;65345;0.000;0.000;2023-11-19T01:08:42;8.63;;;3.90;;
76512;SDS011;65345;0.000;0.000;2023-11-19T01:09:15;7.20;;;3.88;;
76512;SDS011;65345;0.000;0.000;2023-11-19T01:09:47;8.45;;;4.00;;
76512;SDS011;65345;0.000;0.000;2023-11-19T01:10:19;7.72;;;3.90;;
76512;SDS011;65345;0.000;0.000;2023-11-19T01:10:51;8.60;;;4.20;;
76512;SDS011;65345;0.000;0.000;2023-11-19T01:11:25;7.68;;;4.07;;
76512;SDS011;65345;0.000;0.000;2023-11-19T01:12:01;8.23;;;3.85;;
76512;SDS011;65345;0.000;0.000;2023-11-19T01:12:33;7.57;;;3.80;;
76512;SDS011;65345;0.000;0.000;2023-11-19T01:13:04;8.48;;;4.10;;
76512;SDS011;65345;0.000;0.000;2023-11-19T01:13:37;8.77;;;4.30;;
76512;SDS011;65345;0.000;0.000;2023-11-19T01:14:11;6.80;;;3.90;;
76512;SDS011;65345;0.000;0.000;2023-11-19T01:14:42;7.90;;;4.22;;
76512;SDS011;65345;0.000;0.000;2023-11-19T01:15:16;8.23;;;3.95;;
76512;SDS011;65345;0.000;0.000;2023-11-19T01:15:52;7.78;;;3.80;;
76512;SDS011;65345;0.000;0.000;2023-11-19T01:16:26;7.10;;;3.90;;
76512;SDS011;65345;0.000;0.000;2023-11-19T01:16:56;8.17;;;4.00;;
76512;SDS011;65345;0.000;0.000;2023-11-19T01:17:35;7.32;;;3.85;;
76512;SDS011;65345;0.000;0.000;2023-11-19T01:18:09;8.52;;;4.10;;
76512;SDS011;65345;0.000;0.000;2023-11-19T01:18:40;8.05;;;4.20;;
76512;SDS011;65345;0.000;0.000;2023-11-19T01:19:12;7.80;;;4.00;;
76512;SDS011;65345;0.000;0.000;2023-11-19T01:19:42;7.43;;;4.03;;
76512;SDS011;65345;0.000;0.000;2023-11-19T01:20:17;6.70;;;3.70;;
76512;SDS011;65345;0.000;0.000;2023-11-19T01:20:52;7.28;;;3.67;;
76512;SDS011;65345;0.000;0.000;2023-11-19T01:21:26;8.60;;;4.10;;
76512;SDS011;65345;0.000;0.000;2023-11-19T01:21:57;7.50;;;3.90;;
76512;SDS011;65345;0.000;0.000;2023-11-19T01:22:32;7.00;;;3.88;;
76512;SDS011;65345;0.000;0.000;2023-11-19T01:23:12;7.13;;;3.78;;
76512;SDS011;65345;0.000;0.000;2023-11-19T01:23:45;7.28;;;3.70;;
76512;SDS011;65345;0.000;0.000;2023-11-19T01:24:15;7.35;;;4.13;;
76512;SDS011;65345;0.000;0.000;2023-11-19T01:24:47;7.60;;;3.70;;
76512;SDS011;65345;0.000;0.000;2023-11-19T01:25:18;6.85;;;3.88;;
76512;SDS011;65345;0.000;0.000;2023-11-19T01:25:52;8.82;;;4.13;;
76512;SDS011;65345;0.000;0.000;2023-11-19T01:26:28;7.72;;;3.80;;
76512;SDS011;65345;0.000;0.000;2023-11-19T01:27:03;7.88;;;3.75;;
76512;SDS011;65345;0.000;0.000;2023-11-19T01:27:34;7.70;;;4.00;;
76512;SDS011;65345;0.000;0.000;2023-11-19T01:29:02;9.48;;;3.80;;
76512;SDS011;65345;0.000;0.000;2023-11-19T01:29:37;8.95;;;3.90;;
76512;SDS011;65345;0.000;0.000;2023-11-19T01:30:09;7.35;;;3.63;;
76512;SDS011;65345;0.000;0.000;2023-11-19T01:30:44;6.88;;;3.90;;
76512;SDS011;65345;0.000;0.000;2023-11-19T01:31:17;6.85;;;3.67;;
76512;SDS011;65345;0.000;0.000;2023-11-19T01:31:52;7.53;;;4.05;;
76512;SDS011;65345;0.000;0.000;2023-11-19T01:32:26;8.18;;;4.10;;
76512;SDS011;65345;0.000;0.000;2023-11-19T01:33:02;7.90;;;4.07;;
76512;SDS011;65345;0.000;0.000;2023-11-19T01:33:36;8.32;;;4.13;;
76512;SDS011;65345;0.000;0.000;2023-11-19T01:34:08;6.95;;;3.75;;
76512;SDS011;65345;0.000;0.000;2023-11-19T01:34:41;8.27;;;3.97;;
76512;SDS011;65345;0.000;0.000;2023-11-19T01:35:17;7.22;;;3.75;;
76512;SDS011;65345;0.000;0.000;2023-11-19T01:35:47;7.95;;;3.50;;
76512;SDS011;65345;0.000;0.000;2023-11-19T01:36:19;7.78;;;4.05;;
76512;SDS011;65345;0.000;0.000;2023-11-19T01:36:52;8.33;;;3.83;;
76512;SDS011;65345;0.000;0.000;2023-11-19T01:38:06;7.40;;;3.83;;
76512;SDS011;65345;0.000;0.000;2023-11-19T01:38:39;7.85;;;3.92;;
76512;SDS011;65345;0.000;0.000;2023-11-19T01:39:13;5.93;;;3.50;;
76512;SDS011;65345;0.000;0.000;2023-11-19T01:39:46;8.00;;;3.90;;
76512;SDS011;65345;0.000;0.000;2023-11-19T01:40:19;6.80;;;3.60;;
76512;SDS011;65345;0.000;0.000;2023-11-19T01:40:50;6.55;;;3.67;;
76512;SDS011;65345;0.000;0.000;2023-11-19T01:41:20;7.57;;;3.80;;
76512;SDS011;65345;0.000;0.000;2023-11-19T01:41:53;6.90;;;3.60;;
76512;SDS011;65345;0.000;0.000;2023-11-19T01:42:27;7.18;;;3.47;;
76512;SDS011;65345;0.000;0.000;2023-11-19T01:42:58;6.50;;;3.60;;
76512;SDS011;65345;0.000;0.000;2023-11-19T01:43:32;7.22;;;3.70;;
76512;SDS011;65345;0.000;0.000;2023-11-19T01:44:12;7.75;;;3.80;;
76512;SDS011;65345;0.000;0.000;2023-11-19T01:44:53;7.47;;;3.73;;
76512;SDS011;65345;0.000;0.000;2023-11-19T01:45:28;7.78;;;3.72;;
76512;SDS011;65345;0.000;0.000;2023-11-19T01:46:08;7.43;;;3.72;;
76512;SDS011;65345;0.000;0.000;2023-11-19T01:46:44;6.63;;;3.45;;
76512;SDS011;65345;0.000;0.000;2023-11-19T01:47:19;7.65;;;3.83;;
76512;SDS011;65345;0.000;0.000;2023-11-19T01:47:50;6.88;;;3.70;;
76512;SDS011;65345;0.000;0.000;2023-11-19T01:48:26;7.68;;;3.97;;
76512;SDS011;65345;0.000;0.000;2023-11-19T01:48:56;7.30;;;3.42;;
76512;SDS011;65345;0.000;0.000;2023-11-19T01:49:27;6.37;;;3.60;;
76512;SDS011;65345;0.000;0.000;2023-11-19T01:50:00;6.60;;;3.53;;
76512;SDS011;65345;0.000;0.000;2023-11-19T01:50:35;7.43;;;3.65;;
76512;SDS011;65345;0.000;0.000;2023-11-19T01:51:07;6.28;;;3.40;;
76512;SDS011;65345;0.000;0.000;2023-11-19T01:51:38;7.13;;;3.47;;
76512;SDS011;65345;0.000;0.000;2023-11-19T01:52:11;7.30;;;3.85;;
76512;SDS011;65345;0.000;0.000;2023-11-19T01:52:43;7.37;;;3.83;;
76512;SDS011;65345;0.000;0.000;2023-11-19T01:53:13;6.57;;;3.40;;
76512;SDS011;65345;0.000;0.000;2023-11-19T01:53:51;7.07;;;3.47;;
76512;SDS011;65345;0.000;0.000;2023-11-19T01:54:25;6.05;;;3.40;;
76512;SDS011;65345;0.000;0.000;2023-11-19T01:54:57;7.88;;;3.60;;
76512;SDS011;65345;0.000;0.000;2023-11-19T01:55:32;6.43;;;3.65;;
76512;SDS011;65345;0.000;0.000;2023-11-19T01:56:03;6.22;;;3.38;;
76512;SDS011;65345;0.000;0.000;2023-11-19T01:56:43;7.55;;;3.72;;
76512;SDS011;65345;0.000;0.000;2023-11-19T01:57:16;8.00;;;3.83;;
76512;SDS011;65345;0.000;0.000;2023-11-19T01:57:47;7.32;;;3.65;;
76512;SDS011;65345;0.000;0.000;2023-11-19T01:58:19;6.97;;;3.60;;
76512;SDS011;65345;0.000;0.000;2023-11-19T01:58:50;6.78;;;3.58;;
76512;SDS011;65345;0.000;0.000;2023-11-19T01:59:21;6.67;;;3.60;;
76512;SDS011;65345;0.000;0.000;2023-11-19T02:00:00;6.75;;;3.53;;
76512;SDS011;65345;0.000;0.000;2023-11-19T02:00:33;6.60;;;3.55;;
76512;SDS011;65345;0.000;0.000;2023-11-19T02:01:09;6.60;;;3.42;;
76512;SDS011;65345;0.000;0.000;2023-11-19T02:01:44;7.28;;;3.47;;
76512;SDS011;65345;0.000;0.000;2023-11-19T02:02:18;6.72;;;3.50;;
76512;SDS011;65345;0.000;0.000;2023-11-19T02:02:54;6.53;;;3.67;;
76512;SDS011;65345;0.000;0.000;2023-11-19T02:03:27;7.32;;;3.33;;
76512;SDS011;65345;0.000;0.000;2023-11-19T02:04:02;7.82;;;3.85;;
76512;SDS011;65345;0.000;0.000;2023-11-19T02:04:44;6.50;;;3.40;;
76512;SDS011;65345;0.000;0.000;2023-11-19T02:05:19;6.70;;;3.75;;
76512;SDS011;65345;0.000;0.000;2023-11-19T02:05:50;7.50;;;3.75;;
76512;SDS011;65345;0.000;0.000;2023-11-19T02:06:21;7.05;;;3.60;;
76512;SDS011;65345;0.000;0.000;2023-11-19T02:06:54;6.32;;;3.40;;
76512;SDS011;65345;0.000;0.000;2023-11-19T02:07:27;6.15;;;3.35;;
76512;SDS011;65345;0.000;0.000;2023-11-19T02:08:04;7.40;;;3.75;;
76512;SDS011;65345;0.000;0.000;2023-11-19T02:08:34;7.18;;;3.58;;
76512;SDS011;65345;0.000;0.000;2023-11-19T02:09:05;6.57;;;3.50;;
76512;SDS011;65345;0.000;0.000;2023-11-19T02:09:40;7.28;;;3.60;;
76512;SDS011;65345;0.000;0.000;2023-11-19T02:10:13;7.38;;;3.70;;
76512;SDS011;65345;0.000;0.000;2023-11-19T02:10:46;7.25;;;3.70;;
76512;SDS011;65345;0.000;0.000;2023-11-19T02:11:21;6.03;;;3.25;;
76512;SDS011;65345;0.000;0.000;2023-11-19T02:11:52;6.03;;;3.42;;
76512;SDS011;65345;0.000;0.000;2023-11-19T02:12:26;7.68;;;3.80;;
76512;SDS011;65345;0.000;0.000;2023-11-19T02:12:58;5.70;;;3.10;;
76512;SDS011;65345;0.000;0.000;2023-11-19T02:13:34;6.20;;;3.38;;
76512;SDS011;65345;0.000;0.000;2023-11-19T02:14:07;6.93;;;3.78;;
76512;SDS011;65345;0.000;0.000;2023-11-19T02:14:39;5.93;;;3.30;;
76512;SDS011;65345;0.000;0.000;2023-11-19T02:15:15;6.05;;;3.28;;
76512;SDS011;65345;0.000;0.000;2023-11-19T02:15:50;7.25;;;3.65;;
76512;SDS011;65345;0.000;0.000;2023-11-19T02:16:21;6.93;;;3.60;;
76512;SDS011;65345;0.000;0.000;2023-11-19T02:16:53;6.97;;;3.10;;
76512;SDS011;65345;0.000;0.000;2023-11-19T02:17:30;6.25;;;3.28;;
76512;SDS011;65345;0.000;0.000;2023-11-19T02:18:18;6.82;;;3.28;;
76512;SDS011;65345;0.000;0.000;2023-11-19T02:18:51;7.00;;;3.40;;
76512;SDS011;65345;0.000;0.000;2023-11-19T02:19:23;6.00;;;3.20;;
76512;SDS011;65345;0.000;0.000;2023-11-19T02:19:54;6.05;;;3.42;;
76512;SDS011;65345;0.000;0.000;2023-11-19T02:20:26;7.03;;;3.45;;
76512;SDS011;65345;0.000;0.000;2023-11-19T02:21:01;6.80;;;3.40;;
76512;SDS011;65345;0.000;0.000;2023-11-19T02:21:31;7.05;;;3.47;;
76512;SDS011;65345;0.000;0.000;2023-11-19T02:22:02;6.78;;;3.55;;
76512;SDS011;65345;0.000;0.000;2023-11-19T02:22:34;7.40;;;3.87;;
76512;SDS011;65345;0.000;0.000;2023-11-19T02:23:04;6.43;;;3.40;;
76512;SDS011;65345;0.000;0.000;2023-11-19T02:23:38;7.05;;;3.30;;
76512;SDS011;65345;0.000;0.000;2023-11-19T02:24:12;6.10;;;3.42;;
76512;SDS011;65345;0.000;0.000;2023-11-19T02:24:45;6.18;;;3.20;;
76512;SDS011;65345;0.000;0.000;2023-11-19T02:25:30;6.38;;;3.30;;
76512;SDS011;65345;0.000;0.000;2023-11-19T02:26:18;5.72;;;3.28;;
76512;SDS011;65345;0.000;0.000;2023-11-19T02:27:02;6.18;;;3.25;;
76512;SDS011;65345;0.000;0.000;2023-11-19T02:28:21;5.88;;;2.90;;
76512;SDS011;65345;0.000;0.000;2023-11-19T02:28:52;6.13;;;3.20;;
76512;SDS011;65345;0.000;0.000;2023-11-19T02:29:25;6.40;;;3.20;;
76512;SDS011;65345;0.000;0.000;2023-11-19T02:29:55;6.53;;;3.28;;
76512;SDS011;65345;0.000;0.000;2023-11-19T02:30:27;5.97;;;3.30;;
76512;SDS011;65345;0.000;0.000;2023-11-19T02:31:12;6.03;;;3.45;;
76512;SDS011;65345;0.000;0.000;2023-11-19T02:31:46;5.90;;;3.00;;
76512;SDS011;65345;0.000;0.000;2023-11-19T02:32:45;6.97;;;3.20;;
76512;SDS011;65345;0.000;0.000;2023-11-19T02:33:20;5.75;;;3.00;;
76512;SDS011;65345;0.000;0.000;2023-11-19T02:33:51;5.97;;;3.10;;
76512;SDS011;65345;0.000;0.000;2023-11-19T02:34:22;6.03;;;3.40;;
76512;SDS011;65345;0.000;0.000;2023-11-19T02:34:54;7.28;;;3.45;;
76512;SDS011;65345;0.000;0.000;2023-11-19T02:35:25;5.97;;;3.15;;
76512;SDS011;65345;0.000;0.000;2023-11-19T02:36:00;6.25;;;3.47;;
76512;SDS011;65345;0.000;0.000;2023-11-19T02:36:33;6.28;;;3.35;;
76512;SDS011;65345;0.000;0.000;2023-11-19T02:37:09;7.17;;;3.10;;
76512;SDS011;65345;0.000;0.000;2023-11-19T02:37:39;6.05;;;2.97;;
76512;SDS011;65345;0.000;0.000;2023-11-19T02:38:10;5.87;;;3.13;;
76512;SDS011;65345;0.000;0.000;2023-11-19T02:38:41;5.60;;;3.13;;
76512;SDS011;65345;0.000;0.000;2023-11-19T02:39:11;6.32;;;3.40;;
76512;SDS011;65345;0.000;0.000;2023-11-19T02:39:44;6.53;;;3.30;;
76512;SDS011;65345;0.000;0.000;2023-11-19T02:40:17;6.13;;;3.35;;
76512;SDS011;65345;0.000;0.000;2023-11-19T02:40:51;6.85;;;3.45;;
76512;SDS011;65345;0.000;0.000;2023-11-19T02:41:23;7.43;;;3.38;;
76512;SDS011;65345;0.000;0.000;2023-11-19T02:41:59;6.13;;;3.30;;
76512;SDS011;65345;0.000;0.000;2023-11-19T02:42:30;6.22;;;3.20;;
76512;SDS011;65345;0.000;0.000;2023-11-19T02:43:05;7.22;;;3.38;;
76512;SDS011;65345;0.000;0.000;2023-11-19T02:43:41;6.57;;;3.00;;
76512;SDS011;65345;0.000;0.000;2023-11-19T02:44:13;5.80;;;3.30;;
76512;SDS011;65345;0.000;0.000;2023-11-19T02:44:44;6.07;;;3.00;;
76512;SDS011;65345;0.000;0.000;2023-11-19T02:45:16;5.18;;;3.17;;
76512;SDS011;65345;0.000;0.000;2023-11-19T02:45:51;6.00;;;3.15;;
76512;SDS011;65345;0.000;0.000;2023-11-19T02:46:22;5.80;;;3.10;;
76512;SDS011;65345;0.000;0.000;2023-11-19T02:47:04;5.80;;;3.15;;
76512;SDS011;65345;0.000;0.000;2023-11-19T02:47:36;6.97;;;3.30;;
76512;SDS011;65345;0.000;0.000;2023-11-19T02:48:11;6.15;;;3.22;;
76512;SDS011;65345;0.000;0.000;2023-11-19T02:48:46;5.78;;;3.28;;
76512;SDS011;65345;0.000;0.000;2023-11-19T02:49:19;5.38;;;2.97;;
76512;SDS011;65345;0.000;0.000;2023-11-19T02:49:53;5.97;;;3.10;;
76512;SDS011;65345;0.000;0.000;2023-11-19T02:50:24;6.57;;;3.30;;
76512;SDS011;65345;0.000;0.000;2023-11-19T02:50:55;6.68;;;3.05;;
76512;SDS011;65345;0.000;0.000;2023-11-19T02:51:29;6.13;;;3.13;;
76512;SDS011;65345;0.000;0.000;2023-11-19T02:52:02;6.53;;;3.10;;
76512;SDS011;65345;0.000;0.000;2023-11-19T02:52:36;5.30;;;2.92;;
76512;SDS011;65345;0.000;0.000;2023-11-19T02:53:09;5.82;;;3.05;;
76512;SDS011;65345;0.000;0.000;2023-11-19T02:53:46;6.00;;;3.08;;
76512;SDS011;65345;0.000;0.000;2023-11-19T02:54:18;6.25;;;2.90;;
76512;SDS011;65345;0.000;0.000;2023-11-19T02:54:55;6.32;;;3.20;;
76512;SDS011;65345;0.000;0.000;2023-11-19T02:55:26;6.68;;;2.92;;
76512;SDS011;65345;0.000;0.000;2023-11-19T02:55:58;5.25;;;3.03;;
76512;SDS011;65345;0.000;0.000;2023-11-19T02:56:42;7.10;;;3.28;;
76512;SDS011;65345;0.000;0.000;2023-11-19T02:57:15;6.47;;;3.33;;
76512;SDS011;65345;0.000;0.000;2023-11-19T02:57:49;6.30;;;3.22;;
76512;SDS011;65345;0.000;0.000;2023-11-19T02:58:22;6.70;;;3.15;;
76512;SDS011;65345;0.000;0.000;2023-11-19T02:58:56;6.00;;;2.97;;
76512;SDS011;65345;0.000;0.000;2023-11-19T02:59:26;6.70;;;3.30;;
76512;SDS011;65345;0.000;0.000;2023-11-19T02:59:58;5.95;;;3.10;;
76512;SDS011;65345;0.000;0.000;2023-11-19T03:00:32;5.43;;;2.80;;
76512;SDS011;65345;0.000;0.000;2023-11-19T03:01:08;6.80;;;2.93;;
76512;SDS011;65345;0.000;0.000;2023-11-19T03:02:06;5.97;;;2.92;;
76512;SDS011;65345;0.000;0.000;2023-11-19T03:02:40;6.38;;;3.20;;
76512;SDS011;65345;0.000;0.000;2023-11-19T03:03:17;6.03;;;2.90;;
76512;SDS011;65345;0.000;0.000;2023-11-19T03:03:51;5.93;;;3.15;;
76512;SDS011;65345;0.000;0.000;2023-11-19T03:04:28;6.30;;;3.30;;
76512;SDS011;65345;0.000;0.000;2023-11-19T03:05:01;5.45;;;2.72;;
76512;SDS011;65345;0.000;0.000;2023-11-19T03:05:31;6.20;;;3.00;;
76512;SDS011;65345;0.000;0.000;2023-11-19T03:06:03;5.50;;;3.00;;
76512;SDS011;65345;0.000;0.000;2023-11-19T03:06:39;6.25;;;3.28;;
76512;SDS011;65345;0.000;0.000;2023-11-19T03:07:15;5.72;;;3.17;;
76512;SDS011;65345;0.000;0.000;2023-11-19T03:07:48;5.93;;;2.95;;
76512;SDS011;65345;0.000;0.000;2023-11-19T03:08:23;6.10;;;3.10;;
76512;SDS011;65345;0.000;0.000;2023-11-19T03:08:55;6.17;;;3.20;;
76512;SDS011;65345;0.000;0.000;2023-11-19T03:09:28;6.03;;;3.03;;
76512;SDS011;65345;0.000;0.000;2023-11-19T03:10:01;5.43;;;3.13;;
76512;SDS011;65345;0.000;0.000;2023-11-19T03:10:33;5.88;;;3.10;;
76512;SDS011;65345;0.000;0.000;2023-11-19T03:11:05;4.82;;;2.85;;
76512;SDS011;65345;0.000;0.000;2023-11-19T03:11:37;5.70;;;2.80;;
76512;SDS011;65345;0.000;0.000;2023-11-19T03:12:08;6.28;;;2.97;;
76512;SDS011;65345;0.000;0.000;2023-11-19T03:12:39;5.70;;;2.92;;
76512;SDS011;65345;0.000;0.000;2023-11-19T03:13:11;5.88;;;2.95;;
76512;SDS011;65345;0.000;0.000;2023-11-19T03:13:49;5.28;;;2.83;;
76512;SDS011;65345;0.000;0.000;2023-11-19T03:14:19;5.70;;;3.10;;
76512;SDS011;65345;0.000;0.000;2023-11-19T03:14:51;6.13;;;3.20;;
76512;SDS011;65345;0.000;0.000;2023-11-19T03:15:21;7.38;;;2.90;;
76512;SDS011;65345;0.000;0.000;2023-11-19T03:15:53;5.53;;;2.90;;
76512;SDS011;65345;0.000;0.000;2023-11-19T03:16:26;7.30;;;3.10;;
76512;SDS011;65345;0.000;0.000;2023-11-19T03:16:58;5.30;;;2.90;;
76512;SDS011;65345;0.000;0.000;2023-11-19T03:17:30;6.90;;;2.78;;
76512;SDS011;65345;0.000;0.000;2023-11-19T03:18:02;7.47;;;3.03;;
76512;SDS011;65345;0.000;0.000;2023-11-19T03:18:36;5.57;;;2.90;;
76512;SDS011;65345;0.000;0.000;2023-11-19T03:19:06;5.80;;;3.00;;
76512;SDS011;65345;0.000;0.000;2023-11-19T03:19:39;5.32;;;2.80;;
76512;SDS011;65345;0.000;0.000;2023-11-19T03:20:11;5.45;;;2.90;;
76512;SDS011;65345;0.000;0.000;2023-11-19T03:20:49;5.78;;;2.60;;
76512;SDS011;65345;0.000;0.000;2023-11-19T03:21:42;5.25;;;2.80;;
76512;SDS011;65345;0.000;0.000;2023-11-19T03:22:16;7.10;;;2.95;;
76512;SDS011;65345;0.000;0.000;2023-11-19T03:22:47;6.18;;;2.90;;
76512;SDS011;65345;0.000;0.000;2023-11-19T03:23:19;5.28;;;2.83;;
76512;SDS011;65345;0.000;0.000;2023-11-19T03:23:57;5.38;;;2.60;;
76512;SDS011;65345;0.000;0.000;2023-11-19T03:24:49;4.57;;;2.58;;
76512;SDS011;65345;0.000;0.000;2023-11-19T03:25:20;6.30;;;3.00;;
76512;SDS011;65345;0.000;0.000;2023-11-19T03:25:58;5.55;;;2.65;;
76512;SDS011;65345;0.000;0.000;2023-11-19T03:26:36;6.10;;;2.85;;
76512;SDS011;65345;0.000;0.000;2023-11-19T03:27:23;5.30;;;2.90;;
76512;SDS011;65345;0.000;0.000;2023-11-19T03:27:55;6.00;;;2.80;;
76512;SDS011;65345;0.000;0.000;2023-11-19T03:28:28;5.88;;;2.95;;
76512;SDS011;65345;0.000;0.000;2023-11-19T03:29:02;5.38;;;3.00;;
76512;SDS011;65345;0.000;0.000;2023-11-19T03:29:39;6.18;;;3.00;;
76512;SDS011;65345;0.000;0.000;2023-11-19T03:30:09;6.22;;;2.90;;